createdAt,value
2018-07-13T00:02:59.598Z,5.70
2018-07-13T00:06:32.833Z,6.47
2018-07-13T00:10:06.327Z,5.40
2018-07-13T00:13:48.696Z,6.00
2018-07-13T00:17:21.675Z,4.90
2018-07-13T00:20:54.656Z,5.70
2018-07-13T00:24:27.977Z,5.67
2018-07-13T00:28:00.953Z,7.10
2018-07-13T00:31:34.582Z,6.60
2018-07-13T00:35:07.569Z,6.27
2018-07-13T00:38:40.563Z,6.70
2018-07-13T00:42:13.804Z,6.03
2018-07-13T00:45:47.045Z,6.90
2018-07-13T00:49:20.282Z,7.00
2018-07-13T00:52:53.541Z,7.40
2018-07-13T00:56:26.772Z,7.00
2018-07-13T01:00:00.017Z,7.60
2018-07-13T01:03:33.272Z,7.53
2018-07-13T01:07:06.268Z,6.83
2018-07-13T01:10:39.504Z,7.23
2018-07-13T01:14:12.754Z,7.23
2018-07-13T01:17:46.014Z,6.70
2018-07-13T01:21:19.253Z,6.60
2018-07-13T01:24:52.520Z,6.67
2018-07-13T01:28:25.764Z,6.47
2018-07-13T01:31:58.732Z,6.80
2018-07-13T01:35:32.032Z,6.67
2018-07-13T01:39:08.375Z,6.97
2018-07-13T01:42:41.652Z,7.13
2018-07-13T01:46:14.883Z,7.63
2018-07-13T01:49:48.135Z,7.03
2018-07-13T01:53:21.365Z,7.37
2018-07-13T01:56:54.592Z,7.00
2018-07-13T02:00:27.856Z,7.20
2018-07-13T02:04:01.092Z,6.80
2018-07-13T02:07:34.468Z,7.50
2018-07-13T02:11:07.706Z,7.97
2018-07-13T02:14:40.943Z,6.97
2018-07-13T02:18:14.156Z,7.37
2018-07-13T02:21:47.380Z,7.30
2018-07-13T02:25:20.638Z,6.73
2018-07-13T02:28:53.873Z,7.53
2018-07-13T02:32:27.097Z,7.63
2018-07-13T02:36:00.414Z,7.30
2018-07-13T02:39:33.808Z,9.10
2018-07-13T02:43:07.040Z,7.80
2018-07-13T02:46:40.304Z,7.33
2018-07-13T02:50:13.564Z,8.40
2018-07-13T02:53:46.820Z,6.60
2018-07-13T02:57:20.037Z,6.73
2018-07-13T03:00:53.369Z,6.87
2018-07-13T03:04:26.617Z,7.60
2018-07-13T03:07:59.864Z,7.60
2018-07-13T03:11:33.100Z,7.93
2018-07-13T03:15:06.542Z,7.93
2018-07-13T03:18:39.770Z,8.17
2018-07-13T03:22:13.047Z,8.43
2018-07-13T03:25:46.285Z,7.50
2018-07-13T03:29:19.530Z,8.07
2018-07-13T03:32:52.764Z,8.60
2018-07-13T03:36:25.992Z,8.80
2018-07-13T03:39:59.238Z,9.77
2018-07-13T03:43:32.490Z,9.47
2018-07-13T03:47:05.752Z,9.13
2018-07-13T03:50:39.005Z,9.30
2018-07-13T03:54:12.322Z,9.10
2018-07-13T03:57:45.502Z,10.10
2018-07-13T04:01:18.729Z,9.90
2018-07-13T04:04:51.723Z,8.53
2018-07-13T04:08:24.981Z,9.40
2018-07-13T04:11:58.220Z,9.27
2018-07-13T04:15:31.469Z,8.77
2018-07-13T04:19:05.050Z,9.47
2018-07-13T04:22:38.369Z,10.00
2018-07-13T04:26:11.680Z,10.03
2018-07-13T04:29:45.069Z,9.17
2018-07-13T04:33:18.409Z,10.07
2018-07-13T04:36:51.679Z,10.53
2018-07-13T04:40:24.930Z,11.23
2018-07-13T04:43:58.200Z,10.40
2018-07-13T04:47:31.490Z,12.47
2018-07-13T04:51:04.754Z,11.30
2018-07-13T04:54:38.022Z,12.00
2018-07-13T04:58:11.658Z,12.23
2018-07-13T05:01:44.676Z,11.93
2018-07-13T05:05:17.970Z,11.63
2018-07-13T05:08:51.273Z,13.20
2018-07-13T05:12:24.640Z,11.37
2018-07-13T05:15:57.651Z,11.90
2018-07-13T05:19:31.632Z,11.70
2018-07-13T05:23:04.910Z,12.30
2018-07-13T05:26:38.216Z,13.83
2018-07-13T05:30:11.477Z,12.63
2018-07-13T05:33:44.745Z,12.23
2018-07-13T05:37:18.009Z,13.10
2018-07-13T05:40:51.340Z,12.47
2018-07-13T05:44:24.410Z,11.53
2018-07-13T05:47:57.713Z,11.67
2018-07-13T05:51:31.005Z,12.53
2018-07-13T05:55:04.313Z,11.90
2018-07-13T05:58:37.575Z,13.60
2018-07-13T06:02:10.849Z,12.23
2018-07-13T06:05:44.120Z,12.87
2018-07-13T06:09:17.407Z,13.10
2018-07-13T06:12:50.928Z,13.97
2018-07-13T06:16:24.168Z,13.10
2018-07-13T06:19:57.163Z,12.87
2018-07-13T06:23:30.169Z,13.10
2018-07-13T06:27:03.443Z,12.60
2018-07-13T06:30:36.693Z,11.07
2018-07-13T06:34:09.955Z,12.20
2018-07-13T06:37:42.946Z,11.93
2018-07-13T06:41:16.200Z,12.30
2018-07-13T06:44:49.501Z,12.07
2018-07-13T06:48:22.785Z,11.30
2018-07-13T06:51:56.142Z,12.00
2018-07-13T06:55:29.412Z,12.67
2018-07-13T06:59:16.997Z,13.07
2018-07-13T07:02:50.252Z,10.90
2018-07-13T07:06:24.021Z,11.03
2018-07-13T07:09:58.428Z,11.27
2018-07-13T07:13:33.621Z,12.57
2018-07-13T07:17:06.860Z,11.00
2018-07-13T07:20:40.101Z,9.10
2018-07-13T07:24:13.377Z,10.50
2018-07-13T07:27:46.395Z,10.27
2018-07-13T07:31:19.677Z,9.67
2018-07-13T07:34:52.656Z,8.87
2018-07-13T07:38:26.276Z,9.53
2018-07-13T07:41:59.488Z,8.67
2018-07-13T07:45:32.756Z,8.43
2018-07-13T07:49:06.017Z,8.30
2018-07-13T07:52:39.269Z,9.30
2018-07-13T07:56:12.533Z,8.77
2018-07-13T07:59:45.787Z,7.83
2018-07-13T08:03:19.025Z,8.50
2018-07-13T08:06:52.616Z,7.40
2018-07-13T08:10:25.594Z,7.10
2018-07-13T08:13:59.151Z,7.80
2018-07-13T08:17:31.908Z,7.20
2018-07-13T08:21:05.160Z,8.40
2018-07-13T08:24:38.425Z,7.50
2018-07-13T08:28:11.758Z,7.50
2018-07-13T08:31:44.994Z,6.83
2018-07-13T08:35:18.253Z,7.60
2018-07-13T08:38:51.504Z,7.57
2018-07-13T08:42:24.804Z,6.20
2018-07-13T08:45:58.113Z,5.77
2018-07-13T08:49:31.311Z,6.50
2018-07-13T08:53:04.564Z,6.27
2018-07-13T08:56:37.560Z,7.23
2018-07-13T09:00:10.913Z,6.60
2018-07-13T09:03:44.151Z,6.50
2018-07-13T09:07:17.384Z,6.80
2018-07-13T09:10:50.664Z,6.77
2018-07-13T09:14:23.667Z,6.77
2018-07-13T09:17:56.912Z,6.67
2018-07-13T09:21:30.181Z,7.03
2018-07-13T09:25:03.448Z,8.03
2018-07-13T09:28:36.708Z,6.00
2018-07-13T09:32:09.943Z,7.60
2018-07-13T09:35:43.198Z,6.20
2018-07-13T09:39:16.433Z,6.43
2018-07-13T09:42:49.696Z,6.80
2018-07-13T09:46:22.948Z,6.23
2018-07-13T09:49:56.213Z,5.90
2018-07-13T09:53:29.475Z,5.70
2018-07-13T09:57:02.564Z,5.63
2018-07-13T10:00:41.212Z,5.67
2018-07-13T10:04:14.376Z,5.37
2018-07-13T10:07:47.376Z,6.60
2018-07-13T10:11:20.653Z,4.83
2018-07-13T10:14:53.984Z,5.43
2018-07-13T10:18:27.257Z,6.00
2018-07-13T10:22:00.678Z,5.53
2018-07-13T10:25:33.976Z,6.10
2018-07-13T10:29:09.969Z,5.60
2018-07-13T10:32:44.817Z,5.50
2018-07-13T10:36:19.740Z,5.87
2018-07-13T10:39:52.987Z,6.20
2018-07-13T10:43:26.274Z,5.53
2018-07-13T10:46:59.531Z,6.00
2018-07-13T10:50:32.803Z,5.80
2018-07-13T10:54:06.069Z,6.50
2018-07-13T10:57:39.336Z,5.20
2018-07-13T11:01:12.613Z,6.60
2018-07-13T11:04:45.885Z,6.17
2018-07-13T11:08:19.126Z,5.53
2018-07-13T11:11:52.384Z,6.30
2018-07-13T11:15:25.643Z,6.50
2018-07-13T11:18:58.991Z,5.50
2018-07-13T11:22:32.256Z,5.70
2018-07-13T11:26:05.533Z,4.60
2018-07-13T11:29:38.850Z,6.00
2018-07-13T11:33:12.056Z,5.10
2018-07-13T11:36:45.421Z,5.60
2018-07-13T11:40:19.239Z,4.60
2018-07-13T11:43:52.486Z,5.57
2018-07-13T11:47:25.730Z,5.90
2018-07-13T11:50:58.996Z,4.70
2018-07-13T11:54:32.277Z,5.00
2018-07-13T11:58:05.549Z,5.03
2018-07-13T12:01:38.550Z,6.20
2018-07-13T12:05:11.801Z,4.63
2018-07-13T12:08:45.084Z,4.90
2018-07-13T12:12:18.316Z,4.43
2018-07-13T12:15:51.577Z,5.00
2018-07-13T12:19:24.804Z,4.73
2018-07-13T12:22:58.101Z,5.03
2018-07-13T12:26:31.354Z,4.50
2018-07-13T12:30:04.651Z,4.07
2018-07-13T12:33:37.920Z,5.43
2018-07-13T12:37:11.198Z,4.63
2018-07-13T12:40:44.462Z,4.93
2018-07-13T12:44:17.700Z,5.17
2018-07-13T12:47:50.947Z,4.70
2018-07-13T12:51:24.212Z,5.57
2018-07-13T12:54:57.632Z,4.50
2018-07-13T12:58:30.892Z,5.17
2018-07-13T13:02:04.124Z,4.63
2018-07-13T13:05:37.425Z,4.50
2018-07-13T13:09:10.638Z,5.30
2018-07-13T13:12:43.892Z,4.33
2018-07-13T13:16:17.152Z,4.63
2018-07-13T13:19:50.424Z,4.77
2018-07-13T13:23:23.681Z,4.67
2018-07-13T13:26:56.961Z,4.23
2018-07-13T13:30:30.288Z,4.77
2018-07-13T13:34:03.547Z,5.07
2018-07-13T13:37:36.582Z,4.43
2018-07-13T13:41:09.829Z,4.50
2018-07-13T13:44:43.121Z,4.60
2018-07-13T13:48:16.381Z,4.30
2018-07-13T13:51:49.645Z,4.70
2018-07-13T13:55:22.642Z,4.43
2018-07-13T13:58:55.880Z,4.87
2018-07-13T14:02:29.148Z,4.60
2018-07-13T14:06:02.396Z,4.27
2018-07-13T14:09:35.648Z,4.60
2018-07-13T14:13:08.621Z,4.80
2018-07-13T14:16:41.624Z,4.43
2018-07-13T14:20:14.695Z,4.10
2018-07-13T14:23:47.913Z,5.37
2018-07-13T14:27:21.157Z,4.80
2018-07-13T14:30:54.400Z,4.83
2018-07-13T14:34:27.760Z,5.00
2018-07-13T14:38:00.988Z,4.47
2018-07-13T14:41:34.256Z,4.37
2018-07-13T14:45:07.486Z,4.47
2018-07-13T14:48:40.740Z,4.77
2018-07-13T14:52:13.969Z,4.40
2018-07-13T14:55:47.213Z,4.30
2018-07-13T14:59:20.211Z,4.17
2018-07-13T15:02:53.206Z,4.10
2018-07-13T15:06:26.575Z,4.23
2018-07-13T15:09:59.732Z,4.77
2018-07-13T15:13:33.331Z,4.60
2018-07-13T15:17:06.587Z,5.17
2018-07-13T15:20:40.028Z,4.80
2018-07-13T15:24:13.638Z,5.50
2018-07-13T15:27:46.635Z,5.47
2018-07-13T15:31:20.109Z,4.80
2018-07-13T15:34:53.356Z,4.90
2018-07-13T15:38:26.596Z,4.93
2018-07-13T15:41:59.860Z,4.97
2018-07-13T15:45:33.115Z,5.30
2018-07-13T15:49:06.398Z,4.90
2018-07-13T15:52:39.652Z,5.07
2018-07-13T15:56:12.920Z,5.13
2018-07-13T15:59:46.184Z,4.90
2018-07-13T16:03:19.440Z,5.33
2018-07-13T16:06:52.443Z,4.50
2018-07-13T16:10:25.681Z,4.77
2018-07-13T16:13:58.949Z,4.80
2018-07-13T16:17:32.203Z,5.07
2018-07-13T16:21:05.448Z,4.90
2018-07-13T16:24:38.701Z,4.93
2018-07-13T16:28:12.003Z,4.20
2018-07-13T16:31:45.192Z,3.73
2018-07-13T16:35:18.493Z,4.40
2018-07-13T16:38:51.788Z,4.90
2018-07-13T16:42:25.057Z,4.40
2018-07-13T16:45:58.356Z,3.50
2018-07-13T16:49:31.614Z,4.40
2018-07-13T16:53:04.875Z,4.27
2018-07-13T16:56:38.174Z,4.50
2018-07-13T17:00:11.476Z,4.93
2018-07-13T17:03:44.722Z,4.40
2018-07-13T17:07:17.699Z,3.90
2018-07-13T17:10:50.969Z,4.37
2018-07-13T17:14:24.248Z,4.10
2018-07-13T17:17:57.550Z,4.60
2018-07-13T17:21:30.805Z,4.20
2018-07-13T17:25:04.069Z,3.90
2018-07-13T17:28:37.320Z,3.93
2018-07-13T17:32:10.556Z,4.73
2018-07-13T17:35:43.817Z,4.50
2018-07-13T17:39:17.060Z,4.57
2018-07-13T17:42:50.926Z,4.60
2018-07-13T17:46:24.076Z,4.70
2018-07-13T17:49:57.317Z,4.67
2018-07-13T17:53:30.556Z,4.80
2018-07-13T17:57:03.800Z,4.77
2018-07-13T18:00:37.107Z,4.50
2018-07-13T18:04:10.944Z,4.40
2018-07-13T18:07:43.949Z,3.57
2018-07-13T18:11:17.238Z,4.00
2018-07-13T18:14:50.517Z,4.17
2018-07-13T18:18:23.747Z,4.33
2018-07-13T18:21:56.748Z,4.67
2018-07-13T18:25:29.979Z,3.87
2018-07-13T18:29:03.233Z,3.10
2018-07-13T18:32:36.476Z,3.20
2018-07-13T18:36:09.720Z,4.10
2018-07-13T18:39:42.958Z,4.17
2018-07-13T18:43:16.206Z,4.47
2018-07-13T18:46:50.280Z,4.50
2018-07-13T18:50:23.539Z,4.83
2018-07-13T18:53:56.796Z,5.47
2018-07-13T18:57:30.047Z,5.10
2018-07-13T19:01:03.398Z,4.93
2018-07-13T19:04:36.665Z,4.63
2018-07-13T19:08:09.937Z,3.90
2018-07-13T19:11:43.172Z,5.30
2018-07-13T19:15:16.473Z,4.03
2018-07-13T19:18:49.720Z,4.97
2018-07-13T19:22:23.040Z,5.40
2018-07-13T19:25:56.295Z,5.27
2018-07-13T19:29:29.544Z,5.73
2018-07-13T19:33:02.788Z,5.20
2018-07-13T19:36:36.044Z,5.53
2018-07-13T19:40:09.274Z,6.57
2018-07-13T19:43:42.529Z,8.53
2018-07-13T19:47:15.819Z,6.70
2018-07-13T19:50:49.095Z,7.37
2018-07-13T19:54:22.320Z,6.43
2018-07-13T19:57:55.568Z,5.60
2018-07-13T20:01:28.812Z,7.10
2018-07-13T20:05:02.051Z,8.50
2018-07-13T20:08:35.330Z,12.13
2018-07-13T20:12:08.611Z,8.43
2018-07-13T20:15:41.888Z,7.30
2018-07-13T20:19:15.229Z,9.00
2018-07-13T20:22:48.509Z,9.00
2018-07-13T20:26:21.815Z,8.80
2018-07-13T20:29:55.026Z,9.07
2018-07-13T20:33:28.339Z,10.30
2018-07-13T20:37:01.572Z,10.37
2018-07-13T20:40:34.589Z,10.10
2018-07-13T20:44:07.866Z,11.30
2018-07-13T20:47:41.155Z,9.93
2018-07-13T20:51:14.375Z,9.43
2018-07-13T20:54:47.632Z,10.23
2018-07-13T20:58:20.901Z,11.77
2018-07-13T21:01:54.157Z,10.10
2018-07-13T21:05:27.389Z,10.03
2018-07-13T21:09:00.652Z,8.57
2018-07-13T21:12:33.910Z,10.60
2018-07-13T21:16:07.236Z,9.90
2018-07-13T21:19:40.492Z,11.20
2018-07-13T21:23:13.763Z,10.60
2018-07-13T21:26:47.104Z,10.17
2018-07-13T21:30:20.265Z,9.70
2018-07-13T21:33:53.516Z,10.20
2018-07-13T21:37:26.776Z,10.50
2018-07-13T21:41:00.200Z,10.87
2018-07-13T21:44:33.453Z,12.40
2018-07-13T21:48:06.780Z,10.47
2018-07-13T21:51:40.031Z,11.17
2018-07-13T21:55:13.266Z,11.90
2018-07-13T21:58:47.245Z,10.17
2018-07-13T22:02:20.569Z,11.60
2018-07-13T22:05:53.792Z,11.77
2018-07-13T22:09:27.018Z,10.67
2018-07-13T22:13:00.274Z,10.87
2018-07-13T22:16:33.536Z,10.70
2018-07-13T22:20:06.789Z,9.40
2018-07-13T22:23:39.810Z,10.20
2018-07-13T22:27:13.077Z,12.60
2018-07-13T22:30:46.078Z,12.03
2018-07-13T22:34:19.316Z,11.10
2018-07-13T22:37:52.721Z,10.90
2018-07-13T22:41:25.980Z,11.40
2018-07-13T22:44:58.956Z,10.37
2018-07-13T22:48:32.256Z,9.73
2018-07-13T22:52:05.573Z,10.50
2018-07-13T22:55:38.578Z,11.37
2018-07-13T22:59:11.822Z,11.37
2018-07-13T23:02:45.069Z,10.77
2018-07-13T23:06:18.072Z,12.10
2018-07-13T23:09:51.348Z,12.10
2018-07-13T23:13:24.891Z,11.30
2018-07-13T23:16:58.143Z,11.73
2018-07-13T23:20:31.391Z,11.63
2018-07-13T23:24:04.645Z,10.50
2018-07-13T23:27:37.904Z,10.87
2018-07-13T23:31:11.145Z,11.03
2018-07-13T23:34:44.376Z,10.30
2018-07-13T23:38:17.657Z,11.73
2018-07-13T23:41:50.901Z,11.80
2018-07-13T23:45:24.160Z,10.43
2018-07-13T23:48:57.409Z,11.07
2018-07-13T23:52:30.670Z,11.47
2018-07-13T23:56:03.939Z,11.20
2018-07-13T23:59:37.268Z,10.03
